createdAt,value
2018-09-01T00:00:26.581Z,94.70
2018-09-01T00:02:55.493Z,94.70
2018-09-01T00:05:24.476Z,94.70
2018-09-01T00:07:53.591Z,94.50
2018-09-01T00:10:22.656Z,94.50
2018-09-01T00:12:51.649Z,94.60
2018-09-01T00:15:20.693Z,94.60
2018-09-01T00:17:49.825Z,94.50
2018-09-01T00:20:18.913Z,94.40
2018-09-01T00:22:47.954Z,94.20
2018-09-01T00:25:16.841Z,94.30
2018-09-01T00:27:45.769Z,94.30
2018-09-01T00:30:14.864Z,94.50
2018-09-01T00:32:44.018Z,94.40
2018-09-01T00:35:13.153Z,94.40
2018-09-01T00:37:47.381Z,94.50
2018-09-01T00:40:16.407Z,94.50
2018-09-01T00:42:45.750Z,94.50
2018-09-01T00:45:14.790Z,94.60
2018-09-01T00:47:43.858Z,94.90
2018-09-01T00:50:12.830Z,95.10
2018-09-01T00:52:41.850Z,95.00
2018-09-01T00:55:15.886Z,94.90
2018-09-01T00:57:44.884Z,94.90
2018-09-01T01:00:13.821Z,95.20
2018-09-01T01:02:42.969Z,95.20
2018-09-01T01:05:11.918Z,95.50
2018-09-01T01:07:40.867Z,95.90
2018-09-01T01:10:09.971Z,96.20
2018-09-01T01:12:52.676Z,96.60
2018-09-01T01:15:21.874Z,96.70
2018-09-01T01:17:51.009Z,96.90
2018-09-01T01:20:20.110Z,96.80
2018-09-01T01:22:49.267Z,97.00
2018-09-01T01:25:18.454Z,96.90
2018-09-01T01:27:47.625Z,96.90
2018-09-01T01:30:16.744Z,97.10
2018-09-01T01:32:45.842Z,97.10
2018-09-01T01:35:14.938Z,97.20
2018-09-01T01:37:44.058Z,97.30
2018-09-01T01:40:13.227Z,97.30
2018-09-01T01:42:42.314Z,97.30
2018-09-01T01:45:11.579Z,97.30
2018-09-01T01:47:42.063Z,97.30
2018-09-01T01:50:12.212Z,97.20
2018-09-01T01:52:41.441Z,97.30
2018-09-01T01:55:10.626Z,97.30
2018-09-01T01:57:44.802Z,97.20
2018-09-01T02:00:14.009Z,97.20
2018-09-01T02:02:43.107Z,97.30
2018-09-01T02:05:16.535Z,97.30
2018-09-01T02:07:46.187Z,97.30
2018-09-01T02:10:15.562Z,97.10
2018-09-01T02:12:44.780Z,97.20
2018-09-01T02:15:13.930Z,97.10
2018-09-01T02:17:43.075Z,97.20
2018-09-01T02:20:12.224Z,97.10
2018-09-01T02:22:41.403Z,97.20
2018-09-01T02:25:10.562Z,97.00
2018-09-01T02:27:39.639Z,97.10
2018-09-01T02:30:08.826Z,97.00
2018-09-01T02:32:38.204Z,97.30
2018-09-01T02:35:07.430Z,97.40
2018-09-01T02:37:36.634Z,97.40
2018-09-01T02:40:05.774Z,97.60
2018-09-01T02:42:34.902Z,97.60
2018-09-01T02:45:04.197Z,97.70
2018-09-01T02:47:33.317Z,97.80
2018-09-01T02:50:02.410Z,97.90
2018-09-01T02:52:31.513Z,97.80
2018-09-01T02:55:00.553Z,97.70
2018-09-01T02:57:29.616Z,97.50
2018-09-01T02:59:58.630Z,97.50
2018-09-01T03:02:32.895Z,97.60
2018-09-01T03:05:02.019Z,97.50
2018-09-01T03:07:31.174Z,97.50
2018-09-01T03:10:00.194Z,97.20
2018-09-01T03:12:29.189Z,97.20
2018-09-01T03:14:58.263Z,97.40
2018-09-01T03:17:27.290Z,97.30
2018-09-01T03:19:56.464Z,97.30
2018-09-01T03:22:25.509Z,97.20
2018-09-01T03:24:54.624Z,97.30
2018-09-01T03:27:23.719Z,97.40
2018-09-01T03:29:52.790Z,97.40
2018-09-01T03:32:22.018Z,97.50
2018-09-01T03:34:51.121Z,97.50
2018-09-01T03:37:20.119Z,97.40
2018-09-01T03:39:49.154Z,97.30
2018-09-01T03:42:18.234Z,97.30
2018-09-01T03:44:47.360Z,97.20
2018-09-01T03:47:16.414Z,97.10
2018-09-01T03:49:45.550Z,97.30
2018-09-01T03:52:14.700Z,97.10
2018-09-01T03:54:43.740Z,97.20
2018-09-01T03:57:12.841Z,97.30
2018-09-01T03:59:41.899Z,97.40
2018-09-01T04:02:11.052Z,97.40
2018-09-01T04:04:40.133Z,97.40
2018-09-01T04:07:09.133Z,97.30
2018-09-01T04:09:38.165Z,97.30
2018-09-01T04:12:07.242Z,97.30
2018-09-01T04:14:36.295Z,97.40
2018-09-01T04:17:05.665Z,97.30
2018-09-01T04:19:34.729Z,97.30
2018-09-01T04:22:03.796Z,97.30
2018-09-01T04:24:32.909Z,97.70
2018-09-01T04:27:01.942Z,97.30
2018-09-01T04:29:31.055Z,97.30
2018-09-01T04:32:00.157Z,97.10
2018-09-01T04:34:29.197Z,96.90
2018-09-01T04:36:58.403Z,97.00
2018-09-01T04:39:27.430Z,97.20
2018-09-01T04:41:56.537Z,97.20
2018-09-01T04:44:25.655Z,97.10
2018-09-01T04:46:54.853Z,97.20
2018-09-01T04:49:23.965Z,97.20
2018-09-01T04:51:53.055Z,97.30
2018-09-01T04:54:22.058Z,97.30
2018-09-01T04:56:51.157Z,97.30
2018-09-01T04:59:20.221Z,97.40
2018-09-01T05:01:49.260Z,97.40
2018-09-01T05:04:18.439Z,97.50
2018-09-01T05:06:47.546Z,97.50
2018-09-01T05:09:16.680Z,97.60
2018-09-01T05:11:45.749Z,97.80
2018-09-01T05:14:14.845Z,97.80
2018-09-01T05:16:44.015Z,98.00
2018-09-01T05:19:13.235Z,98.10
2018-09-01T05:21:42.318Z,98.10
2018-09-01T05:24:11.364Z,98.20
2018-09-01T05:26:40.435Z,98.20
2018-09-01T05:29:09.539Z,98.10
2018-09-01T05:31:38.585Z,98.00
2018-09-01T05:34:07.700Z,98.00
2018-09-01T05:36:36.943Z,98.00
2018-09-01T05:39:07.901Z,98.10
2018-09-01T05:41:37.153Z,98.10
2018-09-01T05:44:06.402Z,98.30
2018-09-01T05:46:35.663Z,98.30
2018-09-01T05:49:04.726Z,98.40
2018-09-01T05:51:33.899Z,98.40
2018-09-01T05:54:02.939Z,98.30
2018-09-01T05:56:32.039Z,98.40
2018-09-01T05:59:01.118Z,98.30
2018-09-01T06:01:30.301Z,98.30
2018-09-01T06:03:59.411Z,98.20
2018-09-01T06:06:28.651Z,98.00
2018-09-01T06:08:57.663Z,98.00
2018-09-01T06:11:26.860Z,98.10
2018-09-01T06:13:55.891Z,98.20
2018-09-01T06:16:24.994Z,98.20
2018-09-01T06:18:54.071Z,98.30
2018-09-01T06:21:23.225Z,98.30
2018-09-01T06:23:52.331Z,98.10
2018-09-01T06:26:21.509Z,98.20
2018-09-01T06:28:54.360Z,98.20
2018-09-01T06:31:23.851Z,98.10
2018-09-01T06:33:53.980Z,98.10
2018-09-01T06:36:23.095Z,98.10
2018-09-01T06:38:52.180Z,98.10
2018-09-01T06:41:21.355Z,98.10
2018-09-01T06:43:50.462Z,98.10
2018-09-01T06:46:19.554Z,98.10
2018-09-01T06:48:48.697Z,98.00
2018-09-01T06:51:17.784Z,98.10
2018-09-01T06:53:47.073Z,98.00
2018-09-01T06:56:16.222Z,97.90
2018-09-01T06:58:45.415Z,97.90
2018-09-01T07:01:14.556Z,97.90
2018-09-01T07:03:43.656Z,97.90
2018-09-01T07:06:12.711Z,97.80
2018-09-01T07:08:41.937Z,98.00
2018-09-01T07:11:10.979Z,98.10
2018-09-01T07:13:40.146Z,98.10
2018-09-01T07:16:09.170Z,98.10
2018-09-01T07:18:38.252Z,98.10
2018-09-01T07:21:07.325Z,98.20
2018-09-01T07:23:36.516Z,98.40
2018-09-01T07:26:05.679Z,98.40
2018-09-01T07:28:34.825Z,98.40
2018-09-01T07:31:04.170Z,98.40
2018-09-01T07:33:33.089Z,98.40
2018-09-01T07:36:02.244Z,98.40
2018-09-01T07:38:31.269Z,98.50
2018-09-01T07:41:00.375Z,98.70
2018-09-01T07:43:29.493Z,98.70
2018-09-01T07:45:58.610Z,98.80
2018-09-01T07:48:27.731Z,98.80
2018-09-01T07:50:56.834Z,98.80
2018-09-01T07:53:26.098Z,98.80
2018-09-01T07:55:55.202Z,98.80
2018-09-01T07:58:24.343Z,98.50
2018-09-01T08:00:53.395Z,98.50
2018-09-01T08:03:22.600Z,98.40
2018-09-01T08:05:51.846Z,98.40
2018-09-01T08:08:27.486Z,98.40
2018-09-01T08:10:56.569Z,98.50
2018-09-01T08:13:25.760Z,98.60
2018-09-01T08:15:54.827Z,98.50
2018-09-01T08:18:23.916Z,98.50
2018-09-01T08:20:53.034Z,98.50
2018-09-01T08:23:22.151Z,98.30
2018-09-01T08:25:51.332Z,98.10
2018-09-01T08:28:20.500Z,98.10
2018-09-01T08:30:49.690Z,98.10
2018-09-01T08:33:18.732Z,98.20
2018-09-01T08:35:47.863Z,98.10
2018-09-01T08:38:17.007Z,98.20
2018-09-01T08:40:46.095Z,98.10
2018-09-01T08:43:15.444Z,97.90
2018-09-01T08:45:44.640Z,97.90
2018-09-01T08:48:13.809Z,97.90
2018-09-01T08:50:42.920Z,97.70
2018-09-01T08:53:11.993Z,97.50
2018-09-01T08:55:41.046Z,97.40
2018-09-01T08:58:10.092Z,97.00
2018-09-01T09:00:39.188Z,96.90
2018-09-01T09:03:09.171Z,97.10
2018-09-01T09:05:38.268Z,97.30
2018-09-01T09:08:07.501Z,97.30
2018-09-01T09:10:36.555Z,97.00
2018-09-01T09:13:05.673Z,96.70
2018-09-01T09:15:34.865Z,96.70
2018-09-01T09:18:03.999Z,96.70
2018-09-01T09:20:33.073Z,96.40
2018-09-01T09:23:02.199Z,96.20
2018-09-01T09:25:31.251Z,96.20
2018-09-01T09:28:00.340Z,96.10
2018-09-01T09:30:29.500Z,96.00
2018-09-01T09:32:58.802Z,96.10
2018-09-01T09:35:28.070Z,95.70
2018-09-01T09:37:57.294Z,95.70
2018-09-01T09:40:26.480Z,95.90
2018-09-01T09:42:55.504Z,96.00
2018-09-01T09:45:24.634Z,95.80
2018-09-01T09:47:53.816Z,95.30
2018-09-01T09:50:22.914Z,95.80
2018-09-01T09:52:52.147Z,95.90
2018-09-01T09:55:21.427Z,95.80
2018-09-01T09:57:50.580Z,96.00
2018-09-01T10:00:24.975Z,96.10
2018-09-01T10:02:54.065Z,96.40
2018-09-01T10:05:23.217Z,96.50
2018-09-01T10:07:52.359Z,96.60
2018-09-01T10:10:21.561Z,96.90
2018-09-01T10:12:50.608Z,96.90
2018-09-01T10:15:19.881Z,96.50
2018-09-01T10:17:49.041Z,96.70
2018-09-01T10:20:18.190Z,96.30
2018-09-01T10:22:47.193Z,95.70
2018-09-01T10:25:16.247Z,95.10
2018-09-01T10:27:45.333Z,94.90
2018-09-01T10:30:14.408Z,94.50
2018-09-01T10:32:43.569Z,93.60
2018-09-01T10:35:12.745Z,93.20
2018-09-01T10:37:41.901Z,92.70
2018-09-01T10:40:11.036Z,92.40
2018-09-01T10:42:40.125Z,91.40
2018-09-01T10:45:09.312Z,91.50
2018-09-01T10:47:38.420Z,91.50
2018-09-01T10:50:07.556Z,91.80
2018-09-01T10:52:36.660Z,92.80
2018-09-01T10:55:05.891Z,92.80
2018-09-01T10:57:35.145Z,92.60
2018-09-01T11:00:04.389Z,92.80
2018-09-01T11:02:33.514Z,92.60
2018-09-01T11:05:02.619Z,92.70
2018-09-01T11:07:31.901Z,92.60
2018-09-01T11:10:01.043Z,92.30
2018-09-01T11:12:30.227Z,92.20
2018-09-01T11:14:59.315Z,92.70
2018-09-01T11:17:28.509Z,91.70
2018-09-01T11:19:57.634Z,91.50
2018-09-01T11:22:26.842Z,90.60
2018-09-01T11:24:55.912Z,90.80
2018-09-01T11:27:25.115Z,90.40
2018-09-01T11:29:54.298Z,91.20
2018-09-01T11:32:23.484Z,91.20
2018-09-01T11:34:52.544Z,91.20
2018-09-01T11:37:21.720Z,91.30
2018-09-01T11:39:52.199Z,91.10
2018-09-01T11:42:21.350Z,91.70
2018-09-01T11:44:50.540Z,92.00
2018-09-01T11:47:19.634Z,92.10
2018-09-01T11:49:48.698Z,92.30
2018-09-01T11:52:18.139Z,92.50
2018-09-01T11:54:47.291Z,92.80
2018-09-01T11:57:16.434Z,92.40
2018-09-01T11:59:45.558Z,92.10
2018-09-01T12:02:14.701Z,92.90
2018-09-01T12:04:43.721Z,92.90
2018-09-01T12:07:13.029Z,93.00
2018-09-01T12:09:42.220Z,92.70
2018-09-01T12:12:11.455Z,93.40
2018-09-01T12:14:40.576Z,93.30
2018-09-01T12:17:09.639Z,93.30
2018-09-01T12:19:38.726Z,93.60
2018-09-01T12:22:08.008Z,93.10
2018-09-01T12:24:37.223Z,93.40
2018-09-01T12:27:06.464Z,93.60
2018-09-01T12:29:35.522Z,93.90
2018-09-01T12:35:11.499Z,94.30
2018-09-01T12:37:40.804Z,94.90
2018-09-01T12:40:10.081Z,95.10
2018-09-01T12:42:42.108Z,95.20
2018-09-01T12:45:11.244Z,95.10
2018-09-01T12:47:40.423Z,95.20
2018-09-01T12:50:09.519Z,95.30
2018-09-01T12:52:38.584Z,95.40
2018-09-01T12:55:09.305Z,95.60
2018-09-01T12:57:38.422Z,95.80
2018-09-01T13:00:07.589Z,95.90
2018-09-01T13:02:36.783Z,95.90
2018-09-01T13:05:06.282Z,95.90
2018-09-01T13:07:35.405Z,96.20
2018-09-01T13:10:04.564Z,96.40
2018-09-01T13:12:33.766Z,96.60
2018-09-01T13:15:02.901Z,97.00
2018-09-01T13:17:32.057Z,97.20
2018-09-01T13:20:01.181Z,97.30
2018-09-01T13:22:30.308Z,97.50
2018-09-01T13:24:59.495Z,97.40
2018-09-01T13:27:28.616Z,97.20
2018-09-01T13:29:57.778Z,97.30
2018-09-01T13:32:26.957Z,97.40
2018-09-01T13:34:56.195Z,97.30
2018-09-01T13:37:25.332Z,97.20
2018-09-01T13:39:54.407Z,97.10
2018-09-01T13:42:23.692Z,96.90
2018-09-01T13:44:52.829Z,96.60
2018-09-01T13:47:21.916Z,96.40
2018-09-01T13:49:51.012Z,96.10
2018-09-01T13:52:20.187Z,95.60
2018-09-01T13:54:49.320Z,95.50
2018-09-01T13:57:18.554Z,95.30
2018-09-01T13:59:47.695Z,95.60
2018-09-01T14:02:16.814Z,95.40
2018-09-01T14:04:46.234Z,95.30
2018-09-01T14:07:15.400Z,95.10
2018-09-01T14:09:44.491Z,95.40
2018-09-01T14:12:13.587Z,95.30
2018-09-01T14:14:42.726Z,95.10
2018-09-01T14:17:11.962Z,95.00
2018-09-01T14:19:41.080Z,95.00
2018-09-01T14:22:10.182Z,95.20
2018-09-01T14:24:39.378Z,95.10
2018-09-01T14:27:08.608Z,95.00
2018-09-01T14:29:37.748Z,95.00
2018-09-01T14:32:06.884Z,94.70
2018-09-01T14:34:36.055Z,94.60
2018-09-01T14:37:05.789Z,94.40
2018-09-01T14:39:34.953Z,94.30
2018-09-01T14:42:04.183Z,94.00
2018-09-01T14:44:33.285Z,93.80
2018-09-01T14:47:02.621Z,94.10
2018-09-01T14:49:31.806Z,94.40
2018-09-01T14:52:01.020Z,94.40
2018-09-01T14:54:30.108Z,94.60
2018-09-01T14:56:59.386Z,94.50
2018-09-01T14:59:28.557Z,94.40
2018-09-01T15:01:57.663Z,94.30
2018-09-01T15:04:26.849Z,94.50
2018-09-01T15:06:56.240Z,94.50
2018-09-01T15:09:25.394Z,94.60
2018-09-01T15:11:54.754Z,94.70
2018-09-01T15:14:24.057Z,95.10
2018-09-01T15:16:53.324Z,95.20
2018-09-01T15:19:22.502Z,95.40
2018-09-01T15:21:51.630Z,95.00
2018-09-01T15:24:20.844Z,95.10
2018-09-01T15:26:50.028Z,95.00
2018-09-01T15:29:19.222Z,95.30
2018-09-01T15:31:55.080Z,95.30
2018-09-01T15:34:24.346Z,95.20
2018-09-01T15:36:53.553Z,95.40
2018-09-01T15:39:22.727Z,95.60
2018-09-01T15:41:51.937Z,96.00
2018-09-01T15:44:21.171Z,96.50
2018-09-01T15:46:50.360Z,96.50
2018-09-01T15:49:19.520Z,96.60
2018-09-01T15:51:48.763Z,96.50
2018-09-01T15:54:17.975Z,96.90
2018-09-01T15:56:47.380Z,96.90
2018-09-01T15:59:16.645Z,97.00
2018-09-01T16:01:45.883Z,97.10
2018-09-01T16:04:15.067Z,97.20
2018-09-01T16:06:44.288Z,97.00
2018-09-01T16:09:13.489Z,97.20
2018-09-01T16:11:42.568Z,97.20
2018-09-01T16:14:11.752Z,97.30
2018-09-01T16:16:40.896Z,97.30
2018-09-01T16:19:09.961Z,97.40
2018-09-01T16:21:39.048Z,97.30
2018-09-01T16:24:08.258Z,97.20
2018-09-01T16:26:37.454Z,97.20
2018-09-01T16:29:06.539Z,97.20
2018-09-01T16:31:35.739Z,97.20
2018-09-01T16:34:05.106Z,97.20
2018-09-01T16:36:34.342Z,97.30
2018-09-01T16:39:04.935Z,97.20
2018-09-01T16:41:34.113Z,97.20
2018-09-01T16:44:03.251Z,97.20
2018-09-01T16:46:32.483Z,97.30
2018-09-01T16:49:01.553Z,97.50
2018-09-01T16:51:30.755Z,97.60
2018-09-01T16:53:59.857Z,97.60
2018-09-01T16:56:29.063Z,97.70
2018-09-01T16:58:58.276Z,97.70
2018-09-01T17:01:27.572Z,97.80
2018-09-01T17:03:56.738Z,97.80
2018-09-01T17:06:25.958Z,97.80
2018-09-01T17:08:55.235Z,97.80
2018-09-01T17:11:24.335Z,98.10
2018-09-01T17:13:54.320Z,97.70
2018-09-01T17:16:23.387Z,97.70
2018-09-01T17:18:52.535Z,97.70
2018-09-01T17:21:21.640Z,97.70
2018-09-01T17:23:50.727Z,97.70
2018-09-01T17:26:19.759Z,97.80
2018-09-01T17:28:48.846Z,97.90
2018-09-01T17:31:17.922Z,97.90
2018-09-01T17:33:47.136Z,98.00
2018-09-01T17:36:16.324Z,97.90
2018-09-01T17:38:45.570Z,97.90
2018-09-01T17:41:14.744Z,97.90
2018-09-01T17:43:43.938Z,97.90
2018-09-01T17:46:13.161Z,97.90
2018-09-01T17:48:42.379Z,97.90
2018-09-01T17:51:11.496Z,97.90
2018-09-01T17:53:40.783Z,97.90
2018-09-01T17:56:10.015Z,97.90
2018-09-01T17:58:39.240Z,97.90
2018-09-01T18:01:08.419Z,97.90
2018-09-01T18:03:37.528Z,97.90
2018-09-01T18:06:06.748Z,98.00
2018-09-01T18:08:35.900Z,98.00
2018-09-01T18:11:05.168Z,98.00
2018-09-01T18:13:34.322Z,98.00
2018-09-01T18:16:03.472Z,98.00
2018-09-01T18:18:32.624Z,98.10
2018-09-01T18:21:01.744Z,98.20
2018-09-01T18:23:30.875Z,98.20
2018-09-01T18:26:00.071Z,98.30
2018-09-01T18:28:29.415Z,98.40
2018-09-01T18:30:58.744Z,98.10
2018-09-01T18:33:27.879Z,97.80
2018-09-01T18:35:57.152Z,98.00
2018-09-01T18:38:26.220Z,98.10
2018-09-01T18:40:55.315Z,98.20
2018-09-01T18:43:24.808Z,98.30
2018-09-01T18:45:54.095Z,98.30
2018-09-01T18:48:23.196Z,98.40
2018-09-01T18:50:52.303Z,98.40
2018-09-01T18:53:21.610Z,98.30
2018-09-01T18:55:50.800Z,98.30
2018-09-01T18:58:19.912Z,98.30
2018-09-01T19:00:49.120Z,98.30
2018-09-01T19:03:18.385Z,98.30
2018-09-01T19:05:47.422Z,98.30
2018-09-01T19:08:16.586Z,98.40
2018-09-01T19:10:45.775Z,98.30
2018-09-01T19:13:15.148Z,98.30
2018-09-01T19:15:44.192Z,98.20
2018-09-01T19:18:13.390Z,98.30
2018-09-01T19:20:42.623Z,98.30
2018-09-01T19:23:11.770Z,98.30
2018-09-01T19:25:40.909Z,98.20
2018-09-01T19:28:10.102Z,98.20
2018-09-01T19:30:39.155Z,98.20
2018-09-01T19:33:08.332Z,98.20
2018-09-01T19:35:37.357Z,98.30
2018-09-01T19:38:06.455Z,98.30
2018-09-01T19:40:35.696Z,98.30
2018-09-01T19:43:04.853Z,98.20
2018-09-01T19:45:34.299Z,98.30
2018-09-01T19:48:03.247Z,98.30
2018-09-01T19:50:32.536Z,98.30
2018-09-01T19:53:01.742Z,98.20
2018-09-01T19:55:30.896Z,98.20
2018-09-01T19:58:00.005Z,98.20
2018-09-01T20:00:29.059Z,98.00
2018-09-01T20:02:58.271Z,98.10
2018-09-01T20:05:27.614Z,98.10
2018-09-01T20:07:56.861Z,98.10
2018-09-01T20:10:26.118Z,98.10
2018-09-01T20:12:55.537Z,98.10
2018-09-01T20:15:24.681Z,98.00
2018-09-01T20:17:53.918Z,98.10
2018-09-01T20:20:22.939Z,98.10
2018-09-01T20:22:52.027Z,98.20
2018-09-01T20:25:21.181Z,98.30
2018-09-01T20:27:50.372Z,98.30
2018-09-01T20:30:19.520Z,98.40
2018-09-01T20:32:48.800Z,98.60
2018-09-01T20:35:23.184Z,98.70
2018-09-01T20:37:52.435Z,98.70
2018-09-01T20:40:21.745Z,98.70
2018-09-01T20:42:50.920Z,98.90
2018-09-01T20:45:20.069Z,98.60
2018-09-01T20:47:49.239Z,98.60
2018-09-01T20:50:18.491Z,98.60
2018-09-01T20:52:47.610Z,98.70
2018-09-01T20:55:16.678Z,98.60
2018-09-01T20:57:45.803Z,98.60
2018-09-01T21:00:15.081Z,98.40
2018-09-01T21:02:44.183Z,98.40
2018-09-01T21:05:13.355Z,98.60
2018-09-01T21:07:42.661Z,98.60
2018-09-01T21:10:11.843Z,98.50
2018-09-01T21:12:41.059Z,98.90
2018-09-01T21:15:10.248Z,98.50
2018-09-01T21:17:39.351Z,98.50
2018-09-01T21:20:08.511Z,98.50
2018-09-01T21:22:37.824Z,98.30
2018-09-01T21:25:07.042Z,98.30
2018-09-01T21:27:36.210Z,98.30
2018-09-01T21:30:05.695Z,98.30
2018-09-01T21:32:34.786Z,98.30
2018-09-01T21:35:03.966Z,98.20
2018-09-01T21:37:33.316Z,98.20
2018-09-01T21:40:02.445Z,98.30
2018-09-01T21:42:31.506Z,98.20
2018-09-01T21:45:00.689Z,98.10
2018-09-01T21:47:29.949Z,98.10
2018-09-01T21:49:59.083Z,98.10
2018-09-01T21:52:28.347Z,98.10
2018-09-01T21:54:57.376Z,98.10
2018-09-01T21:57:26.476Z,98.10
2018-09-01T21:59:55.628Z,98.20
2018-09-01T22:02:26.052Z,98.20
2018-09-01T22:05:00.476Z,98.20
2018-09-01T22:07:29.642Z,98.30
2018-09-01T22:09:58.700Z,98.30
2018-09-01T22:12:27.784Z,98.30
2018-09-01T22:14:56.860Z,98.20
2018-09-01T22:17:25.933Z,98.20
2018-09-01T22:19:55.029Z,98.20
2018-09-01T22:22:24.107Z,98.20
2018-09-01T22:24:53.332Z,98.20
2018-09-01T22:27:22.462Z,98.20
2018-09-01T22:29:51.536Z,98.10
2018-09-01T22:32:20.662Z,98.10
2018-09-01T22:34:49.831Z,98.20
2018-09-01T22:37:19.098Z,98.20
2018-09-01T22:39:48.256Z,98.20
2018-09-01T22:42:17.591Z,98.20
2018-09-01T22:44:46.716Z,98.20
2018-09-01T22:47:20.462Z,98.20
2018-09-01T22:49:49.592Z,98.10
2018-09-01T22:52:18.758Z,98.30
2018-09-01T22:54:47.943Z,98.30
2018-09-01T22:57:17.338Z,98.40
2018-09-01T22:59:46.485Z,98.30
2018-09-01T23:02:15.623Z,98.40
2018-09-01T23:04:44.851Z,98.50
2018-09-01T23:07:14.296Z,98.30
2018-09-01T23:09:43.723Z,98.40
2018-09-01T23:12:12.930Z,98.50
2018-09-01T23:14:42.068Z,98.40
2018-09-01T23:17:11.100Z,98.40
2018-09-01T23:19:40.330Z,98.30
2018-09-01T23:22:09.519Z,98.40
2018-09-01T23:24:38.627Z,98.30
2018-09-01T23:27:07.759Z,98.30
2018-09-01T23:29:36.830Z,98.40
2018-09-01T23:32:05.934Z,98.40
2018-09-01T23:34:35.036Z,98.40
2018-09-01T23:37:04.159Z,98.30
2018-09-01T23:39:33.357Z,98.30
2018-09-01T23:42:02.514Z,98.10
2018-09-01T23:44:32.087Z,98.20
2018-09-01T23:47:01.362Z,98.20
2018-09-01T23:49:30.495Z,98.20
2018-09-01T23:51:59.579Z,98.20
2018-09-01T23:54:28.757Z,98.20
2018-09-01T23:56:57.891Z,98.20
2018-09-01T23:59:27.021Z,98.30
